sensor_id;sensor_type;location;lat;lon;timestamp;P1;durP1;ratioP1;P2;durP2;ratioP2
6638;SDS011;3355;52.882;8.430;2022-12-07T00:04:26;13.30;;;6.63;;
6638;SDS011;3355;52.882;8.430;2022-12-07T00:06:52;8.57;;;4.90;;
6638;SDS011;3355;52.882;8.430;2022-12-07T00:09:19;8.43;;;5.30;;
6638;SDS011;3355;52.882;8.430;2022-12-07T00:11:48;11.90;;;6.37;;
6638;SDS011;3355;52.882;8.430;2022-12-07T00:14:15;8.53;;;5.93;;
6638;SDS011;3355;52.882;8.430;2022-12-07T00:16:43;9.47;;;6.10;;
6638;SDS011;3355;52.882;8.430;2022-12-07T00:19:10;9.70;;;5.60;;
6638;SDS011;3355;52.882;8.430;2022-12-07T00:21:39;9.20;;;5.87;;
6638;SDS011;3355;52.882;8.430;2022-12-07T00:24:06;8.80;;;5.77;;
6638;SDS011;3355;52.882;8.430;2022-12-07T00:26:33;8.87;;;5.70;;
6638;SDS011;3355;52.882;8.430;2022-12-07T00:29:02;7.20;;;4.93;;
6638;SDS011;3355;52.882;8.430;2022-12-07T00:31:31;7.97;;;4.63;;
6638;SDS011;3355;52.882;8.430;2022-12-07T00:34:00;6.97;;;5.07;;
6638;SDS011;3355;52.882;8.430;2022-12-07T00:36:27;7.33;;;4.13;;
6638;SDS011;3355;52.882;8.430;2022-12-07T00:38:57;9.10;;;5.10;;
6638;SDS011;3355;52.882;8.430;2022-12-07T00:41:25;9.47;;;4.90;;
6638;SDS011;3355;52.882;8.430;2022-12-07T00:43:54;8.37;;;5.40;;
6638;SDS011;3355;52.882;8.430;2022-12-07T00:46:21;6.60;;;3.73;;
6638;SDS011;3355;52.882;8.430;2022-12-07T00:48:50;9.27;;;4.30;;
6638;SDS011;3355;52.882;8.430;2022-12-07T00:51:18;6.77;;;4.33;;
6638;SDS011;3355;52.882;8.430;2022-12-07T00:53:45;9.00;;;5.30;;
6638;SDS011;3355;52.882;8.430;2022-12-07T00:56:14;7.67;;;5.07;;
6638;SDS011;3355;52.882;8.430;2022-12-07T00:58:42;6.13;;;4.70;;
6638;SDS011;3355;52.882;8.430;2022-12-07T01:01:10;9.90;;;4.30;;
6638;SDS011;3355;52.882;8.430;2022-12-07T01:03:37;6.30;;;3.90;;
6638;SDS011;3355;52.882;8.430;2022-12-07T01:06:04;10.00;;;4.27;;
6638;SDS011;3355;52.882;8.430;2022-12-07T01:08:31;8.60;;;4.20;;
6638;SDS011;3355;52.882;8.430;2022-12-07T01:10:59;8.13;;;4.37;;
6638;SDS011;3355;52.882;8.430;2022-12-07T01:13:28;7.67;;;4.40;;
6638;SDS011;3355;52.882;8.430;2022-12-07T01:15:56;9.50;;;4.43;;
6638;SDS011;3355;52.882;8.430;2022-12-07T01:18:24;10.00;;;4.40;;
6638;SDS011;3355;52.882;8.430;2022-12-07T01:20:57;5.10;;;3.70;;
6638;SDS011;3355;52.882;8.430;2022-12-07T01:23:24;6.50;;;4.07;;
6638;SDS011;3355;52.882;8.430;2022-12-07T01:25:54;6.00;;;3.87;;
6638;SDS011;3355;52.882;8.430;2022-12-07T01:28:27;6.23;;;3.57;;
6638;SDS011;3355;52.882;8.430;2022-12-07T01:31:12;5.87;;;4.40;;
6638;SDS011;3355;52.882;8.430;2022-12-07T01:33:59;7.47;;;4.70;;
6638;SDS011;3355;52.882;8.430;2022-12-07T01:36:29;7.13;;;4.80;;
6638;SDS011;3355;52.882;8.430;2022-12-07T01:38:57;7.73;;;4.37;;
6638;SDS011;3355;52.882;8.430;2022-12-07T01:41:26;7.33;;;4.50;;
6638;SDS011;3355;52.882;8.430;2022-12-07T01:46:57;6.77;;;3.70;;
6638;SDS011;3355;52.882;8.430;2022-12-07T01:49:26;6.97;;;3.80;;
6638;SDS011;3355;52.882;8.430;2022-12-07T01:51:58;6.57;;;4.03;;
6638;SDS011;3355;52.882;8.430;2022-12-07T01:54:29;9.23;;;4.70;;
6638;SDS011;3355;52.882;8.430;2022-12-07T01:56:56;10.13;;;5.07;;
6638;SDS011;3355;52.882;8.430;2022-12-07T01:59:23;5.97;;;3.83;;
6638;SDS011;3355;52.882;8.430;2022-12-07T02:01:53;9.07;;;4.50;;
6638;SDS011;3355;52.882;8.430;2022-12-07T02:04:21;9.07;;;4.60;;
6638;SDS011;3355;52.882;8.430;2022-12-07T02:06:48;10.43;;;4.60;;
6638;SDS011;3355;52.882;8.430;2022-12-07T02:09:17;6.67;;;4.47;;
6638;SDS011;3355;52.882;8.430;2022-12-07T02:11:44;10.17;;;4.90;;
6638;SDS011;3355;52.882;8.430;2022-12-07T02:14:11;7.53;;;4.63;;
6638;SDS011;3355;52.882;8.430;2022-12-07T02:16:40;7.97;;;4.10;;
6638;SDS011;3355;52.882;8.430;2022-12-07T02:22:21;6.13;;;4.07;;
6638;SDS011;3355;52.882;8.430;2022-12-07T02:25:05;8.03;;;4.47;;
6638;SDS011;3355;52.882;8.430;2022-12-07T02:27:37;6.70;;;4.40;;
6638;SDS011;3355;52.882;8.430;2022-12-07T02:30:08;5.50;;;4.00;;
6638;SDS011;3355;52.882;8.430;2022-12-07T02:32:40;4.80;;;3.30;;
6638;SDS011;3355;52.882;8.430;2022-12-07T02:35:11;8.43;;;3.80;;
6638;SDS011;3355;52.882;8.430;2022-12-07T02:37:40;7.93;;;4.00;;
6638;SDS011;3355;52.882;8.430;2022-12-07T02:40:09;9.43;;;3.63;;
6638;SDS011;3355;52.882;8.430;2022-12-07T02:42:40;6.60;;;3.77;;
6638;SDS011;3355;52.882;8.430;2022-12-07T02:45:12;7.10;;;4.07;;
6638;SDS011;3355;52.882;8.430;2022-12-07T02:47:40;5.93;;;4.00;;
6638;SDS011;3355;52.882;8.430;2022-12-07T02:50:07;6.83;;;3.93;;
6638;SDS011;3355;52.882;8.430;2022-12-07T02:52:34;5.77;;;3.40;;
6638;SDS011;3355;52.882;8.430;2022-12-07T02:55:01;8.40;;;4.00;;
6638;SDS011;3355;52.882;8.430;2022-12-07T02:57:32;5.70;;;3.73;;
6638;SDS011;3355;52.882;8.430;2022-12-07T03:00:08;7.00;;;3.30;;
6638;SDS011;3355;52.882;8.430;2022-12-07T03:02:40;8.17;;;4.03;;
6638;SDS011;3355;52.882;8.430;2022-12-07T03:05:17;8.17;;;3.60;;
6638;SDS011;3355;52.882;8.430;2022-12-07T03:08:06;5.33;;;3.10;;
6638;SDS011;3355;52.882;8.430;2022-12-07T03:10:40;9.13;;;4.50;;
6638;SDS011;3355;52.882;8.430;2022-12-07T03:13:16;6.87;;;3.73;;
6638;SDS011;3355;52.882;8.430;2022-12-07T03:15:49;5.73;;;3.30;;
6638;SDS011;3355;52.882;8.430;2022-12-07T03:18:21;6.10;;;3.00;;
6638;SDS011;3355;52.882;8.430;2022-12-07T03:20:50;6.47;;;3.00;;
6638;SDS011;3355;52.882;8.430;2022-12-07T03:23:18;6.10;;;3.50;;
6638;SDS011;3355;52.882;8.430;2022-12-07T03:25:45;7.60;;;3.20;;
6638;SDS011;3355;52.882;8.430;2022-12-07T03:28:16;5.53;;;3.07;;
6638;SDS011;3355;52.882;8.430;2022-12-07T03:30:44;5.30;;;3.00;;
6638;SDS011;3355;52.882;8.430;2022-12-07T03:33:17;6.23;;;2.70;;
6638;SDS011;3355;52.882;8.430;2022-12-07T03:35:48;5.87;;;3.10;;
6638;SDS011;3355;52.882;8.430;2022-12-07T03:38:19;6.20;;;2.80;;
6638;SDS011;3355;52.882;8.430;2022-12-07T03:40:47;10.03;;;2.77;;
6638;SDS011;3355;52.882;8.430;2022-12-07T03:43:17;4.97;;;3.07;;
6638;SDS011;3355;52.882;8.430;2022-12-07T03:45:45;7.73;;;2.53;;
6638;SDS011;3355;52.882;8.430;2022-12-07T03:48:20;6.03;;;2.90;;
6638;SDS011;3355;52.882;8.430;2022-12-07T03:50:51;4.80;;;2.53;;
6638;SDS011;3355;52.882;8.430;2022-12-07T03:53:21;6.77;;;2.73;;
6638;SDS011;3355;52.882;8.430;2022-12-07T03:55:51;4.93;;;2.77;;
6638;SDS011;3355;52.882;8.430;2022-12-07T03:58:19;5.03;;;2.03;;
6638;SDS011;3355;52.882;8.430;2022-12-07T04:00:48;8.47;;;1.73;;
6638;SDS011;3355;52.882;8.430;2022-12-07T04:03:17;9.13;;;1.90;;
6638;SDS011;3355;52.882;8.430;2022-12-07T04:05:47;4.53;;;2.17;;
6638;SDS011;3355;52.882;8.430;2022-12-07T04:08:17;3.90;;;2.13;;
6638;SDS011;3355;52.882;8.430;2022-12-07T04:10:44;5.30;;;2.67;;
6638;SDS011;3355;52.882;8.430;2022-12-07T04:13:10;10.10;;;2.63;;
6638;SDS011;3355;52.882;8.430;2022-12-07T04:15:37;4.10;;;1.63;;
6638;SDS011;3355;52.882;8.430;2022-12-07T04:18:04;6.43;;;1.70;;
6638;SDS011;3355;52.882;8.430;2022-12-07T04:20:33;6.80;;;2.73;;
6638;SDS011;3355;52.882;8.430;2022-12-07T04:23:00;5.23;;;1.80;;
6638;SDS011;3355;52.882;8.430;2022-12-07T04:25:27;8.20;;;2.33;;
6638;SDS011;3355;52.882;8.430;2022-12-07T04:27:54;9.90;;;2.70;;
6638;SDS011;3355;52.882;8.430;2022-12-07T04:30:21;5.77;;;1.63;;
6638;SDS011;3355;52.882;8.430;2022-12-07T04:32:51;4.67;;;1.70;;
6638;SDS011;3355;52.882;8.430;2022-12-07T04:35:18;5.03;;;1.40;;
6638;SDS011;3355;52.882;8.430;2022-12-07T04:37:46;6.20;;;1.70;;
6638;SDS011;3355;52.882;8.430;2022-12-07T04:40:13;5.37;;;1.43;;
6638;SDS011;3355;52.882;8.430;2022-12-07T04:45:22;3.10;;;1.07;;
6638;SDS011;3355;52.882;8.430;2022-12-07T04:47:48;6.47;;;1.60;;
6638;SDS011;3355;52.882;8.430;2022-12-07T04:50:15;4.40;;;1.87;;
6638;SDS011;3355;52.882;8.430;2022-12-07T04:52:42;7.73;;;1.40;;
6638;SDS011;3355;52.882;8.430;2022-12-07T04:55:10;4.80;;;1.03;;
6638;SDS011;3355;52.882;8.430;2022-12-07T04:57:37;5.77;;;2.00;;
6638;SDS011;3355;52.882;8.430;2022-12-07T05:00:04;3.07;;;1.03;;
6638;SDS011;3355;52.882;8.430;2022-12-07T05:02:32;4.03;;;1.00;;
6638;SDS011;3355;52.882;8.430;2022-12-07T05:05:04;2.83;;;1.00;;
6638;SDS011;3355;52.882;8.430;2022-12-07T05:07:31;6.53;;;1.37;;
6638;SDS011;3355;52.882;8.430;2022-12-07T05:09:58;8.30;;;1.60;;
6638;SDS011;3355;52.882;8.430;2022-12-07T05:12:26;2.47;;;1.10;;
6638;SDS011;3355;52.882;8.430;2022-12-07T05:14:56;3.10;;;1.10;;
6638;SDS011;3355;52.882;8.430;2022-12-07T05:17:23;4.63;;;1.00;;
6638;SDS011;3355;52.882;8.430;2022-12-07T05:19:49;8.70;;;1.70;;
6638;SDS011;3355;52.882;8.430;2022-12-07T05:22:16;2.60;;;1.17;;
6638;SDS011;3355;52.882;8.430;2022-12-07T05:24:43;3.77;;;1.47;;
6638;SDS011;3355;52.882;8.430;2022-12-07T05:27:10;9.57;;;2.00;;
6638;SDS011;3355;52.882;8.430;2022-12-07T05:29:38;2.83;;;1.30;;
6638;SDS011;3355;52.882;8.430;2022-12-07T05:32:05;3.17;;;1.00;;
6638;SDS011;3355;52.882;8.430;2022-12-07T05:34:31;4.33;;;1.30;;
6638;SDS011;3355;52.882;8.430;2022-12-07T05:37:00;2.80;;;1.40;;
6638;SDS011;3355;52.882;8.430;2022-12-07T05:39:27;4.30;;;1.40;;
6638;SDS011;3355;52.882;8.430;2022-12-07T05:41:53;5.17;;;2.83;;
6638;SDS011;3355;52.882;8.430;2022-12-07T05:44:40;4.40;;;2.47;;
6638;SDS011;3355;52.882;8.430;2022-12-07T05:47:08;4.47;;;2.47;;
6638;SDS011;3355;52.882;8.430;2022-12-07T05:49:34;7.20;;;4.40;;
6638;SDS011;3355;52.882;8.430;2022-12-07T05:52:01;12.00;;;3.83;;
6638;SDS011;3355;52.882;8.430;2022-12-07T05:54:28;8.27;;;3.17;;
6638;SDS011;3355;52.882;8.430;2022-12-07T05:56:55;4.70;;;2.60;;
6638;SDS011;3355;52.882;8.430;2022-12-07T05:59:31;4.40;;;2.50;;
6638;SDS011;3355;52.882;8.430;2022-12-07T06:05:07;3.63;;;2.00;;
6638;SDS011;3355;52.882;8.430;2022-12-07T06:07:34;4.03;;;2.10;;
6638;SDS011;3355;52.882;8.430;2022-12-07T06:10:01;4.93;;;1.30;;
6638;SDS011;3355;52.882;8.430;2022-12-07T06:12:30;5.10;;;1.20;;
6638;SDS011;3355;52.882;8.430;2022-12-07T06:14:59;2.80;;;1.40;;
6638;SDS011;3355;52.882;8.430;2022-12-07T06:17:29;3.37;;;1.70;;
6638;SDS011;3355;52.882;8.430;2022-12-07T06:19:59;5.80;;;1.40;;
6638;SDS011;3355;52.882;8.430;2022-12-07T06:22:27;1.87;;;0.80;;
6638;SDS011;3355;52.882;8.430;2022-12-07T06:24:58;6.53;;;1.40;;
6638;SDS011;3355;52.882;8.430;2022-12-07T06:27:24;2.00;;;0.70;;
6638;SDS011;3355;52.882;8.430;2022-12-07T06:29:51;3.30;;;1.23;;
6638;SDS011;3355;52.882;8.430;2022-12-07T06:32:34;4.50;;;0.93;;
6638;SDS011;3355;52.882;8.430;2022-12-07T06:35:04;5.23;;;1.17;;
6638;SDS011;3355;52.882;8.430;2022-12-07T06:37:32;3.20;;;1.10;;
6638;SDS011;3355;52.882;8.430;2022-12-07T06:39:59;3.57;;;0.83;;
6638;SDS011;3355;52.882;8.430;2022-12-07T06:42:26;4.13;;;0.80;;
6638;SDS011;3355;52.882;8.430;2022-12-07T06:44:53;2.70;;;0.97;;
6638;SDS011;3355;52.882;8.430;2022-12-07T06:47:20;4.83;;;1.67;;
6638;SDS011;3355;52.882;8.430;2022-12-07T06:49:47;4.70;;;0.83;;
6638;SDS011;3355;52.882;8.430;2022-12-07T06:52:15;2.30;;;0.93;;
6638;SDS011;3355;52.882;8.430;2022-12-07T06:54:42;5.87;;;1.23;;
6638;SDS011;3355;52.882;8.430;2022-12-07T06:57:10;4.30;;;1.00;;
6638;SDS011;3355;52.882;8.430;2022-12-07T06:59:36;3.63;;;1.57;;
6638;SDS011;3355;52.882;8.430;2022-12-07T07:02:03;3.33;;;1.10;;
6638;SDS011;3355;52.882;8.430;2022-12-07T07:04:30;2.23;;;1.00;;
6638;SDS011;3355;52.882;8.430;2022-12-07T07:06:57;2.53;;;0.90;;
6638;SDS011;3355;52.882;8.430;2022-12-07T07:09:25;3.87;;;1.03;;
6638;SDS011;3355;52.882;8.430;2022-12-07T07:11:52;3.63;;;0.77;;
6638;SDS011;3355;52.882;8.430;2022-12-07T07:14:18;2.73;;;1.10;;
6638;SDS011;3355;52.882;8.430;2022-12-07T07:16:46;3.40;;;1.07;;
6638;SDS011;3355;52.882;8.430;2022-12-07T07:19:13;2.57;;;0.70;;
6638;SDS011;3355;52.882;8.430;2022-12-07T07:21:39;3.03;;;1.40;;
6638;SDS011;3355;52.882;8.430;2022-12-07T07:24:07;4.80;;;1.23;;
6638;SDS011;3355;52.882;8.430;2022-12-07T07:26:35;2.63;;;0.97;;
6638;SDS011;3355;52.882;8.430;2022-12-07T07:29:02;1.90;;;1.00;;
6638;SDS011;3355;52.882;8.430;2022-12-07T07:31:29;4.13;;;1.30;;
6638;SDS011;3355;52.882;8.430;2022-12-07T07:33:56;3.70;;;1.50;;
6638;SDS011;3355;52.882;8.430;2022-12-07T07:36:23;3.37;;;1.43;;
6638;SDS011;3355;52.882;8.430;2022-12-07T07:38:50;2.37;;;1.27;;
6638;SDS011;3355;52.882;8.430;2022-12-07T07:41:17;4.50;;;1.43;;
6638;SDS011;3355;52.882;8.430;2022-12-07T07:43:46;7.73;;;1.80;;
6638;SDS011;3355;52.882;8.430;2022-12-07T07:46:13;4.50;;;1.67;;
6638;SDS011;3355;52.882;8.430;2022-12-07T07:48:39;4.10;;;1.70;;
6638;SDS011;3355;52.882;8.430;2022-12-07T07:51:07;4.87;;;1.63;;
6638;SDS011;3355;52.882;8.430;2022-12-07T07:53:34;2.77;;;1.20;;
6638;SDS011;3355;52.882;8.430;2022-12-07T07:56:01;2.30;;;1.20;;
6638;SDS011;3355;52.882;8.430;2022-12-07T07:58:27;3.00;;;1.70;;
6638;SDS011;3355;52.882;8.430;2022-12-07T08:00:55;4.80;;;1.60;;
6638;SDS011;3355;52.882;8.430;2022-12-07T08:03:22;3.70;;;1.10;;
6638;SDS011;3355;52.882;8.430;2022-12-07T08:05:49;2.60;;;1.10;;
6638;SDS011;3355;52.882;8.430;2022-12-07T08:08:16;4.33;;;1.40;;
6638;SDS011;3355;52.882;8.430;2022-12-07T08:10:42;3.10;;;1.30;;
6638;SDS011;3355;52.882;8.430;2022-12-07T08:13:11;7.57;;;2.00;;
6638;SDS011;3355;52.882;8.430;2022-12-07T08:15:41;7.20;;;1.83;;
6638;SDS011;3355;52.882;8.430;2022-12-07T08:18:11;4.37;;;1.50;;
6638;SDS011;3355;52.882;8.430;2022-12-07T08:20:38;3.40;;;1.80;;
6638;SDS011;3355;52.882;8.430;2022-12-07T08:23:06;8.53;;;1.67;;
6638;SDS011;3355;52.882;8.430;2022-12-07T08:25:33;5.50;;;1.20;;
6638;SDS011;3355;52.882;8.430;2022-12-07T08:28:00;4.83;;;1.60;;
6638;SDS011;3355;52.882;8.430;2022-12-07T08:30:27;6.40;;;1.47;;
6638;SDS011;3355;52.882;8.430;2022-12-07T08:32:55;3.13;;;1.20;;
6638;SDS011;3355;52.882;8.430;2022-12-07T08:35:27;6.80;;;1.20;;
6638;SDS011;3355;52.882;8.430;2022-12-07T08:37:54;4.00;;;1.63;;
6638;SDS011;3355;52.882;8.430;2022-12-07T08:40:22;3.23;;;1.27;;
6638;SDS011;3355;52.882;8.430;2022-12-07T08:42:53;6.93;;;1.10;;
6638;SDS011;3355;52.882;8.430;2022-12-07T08:45:23;2.13;;;1.00;;
6638;SDS011;3355;52.882;8.430;2022-12-07T08:47:50;4.13;;;1.20;;
6638;SDS011;3355;52.882;8.430;2022-12-07T08:50:19;3.60;;;0.90;;
6638;SDS011;3355;52.882;8.430;2022-12-07T08:52:57;4.93;;;1.40;;
6638;SDS011;3355;52.882;8.430;2022-12-07T08:55:24;4.67;;;1.37;;
6638;SDS011;3355;52.882;8.430;2022-12-07T08:57:52;2.10;;;1.00;;
6638;SDS011;3355;52.882;8.430;2022-12-07T09:00:23;4.00;;;1.23;;
6638;SDS011;3355;52.882;8.430;2022-12-07T09:02:53;2.47;;;1.20;;
6638;SDS011;3355;52.882;8.430;2022-12-07T09:05:21;5.30;;;1.50;;
6638;SDS011;3355;52.882;8.430;2022-12-07T09:07:50;5.63;;;1.33;;
6638;SDS011;3355;52.882;8.430;2022-12-07T09:10:18;5.47;;;1.17;;
6638;SDS011;3355;52.882;8.430;2022-12-07T09:12:45;1.97;;;0.97;;
6638;SDS011;3355;52.882;8.430;2022-12-07T09:15:12;3.80;;;1.20;;
6638;SDS011;3355;52.882;8.430;2022-12-07T09:17:39;4.10;;;1.43;;
6638;SDS011;3355;52.882;8.430;2022-12-07T09:20:06;6.37;;;1.50;;
6638;SDS011;3355;52.882;8.430;2022-12-07T09:22:33;4.30;;;1.60;;
6638;SDS011;3355;52.882;8.430;2022-12-07T09:25:02;2.80;;;1.33;;
6638;SDS011;3355;52.882;8.430;2022-12-07T09:27:30;4.03;;;1.20;;
6638;SDS011;3355;52.882;8.430;2022-12-07T09:29:57;8.37;;;1.70;;
6638;SDS011;3355;52.882;8.430;2022-12-07T09:32:23;4.80;;;1.30;;
6638;SDS011;3355;52.882;8.430;2022-12-07T09:34:51;4.93;;;1.47;;
6638;SDS011;3355;52.882;8.430;2022-12-07T09:39:47;6.50;;;2.00;;
6638;SDS011;3355;52.882;8.430;2022-12-07T09:42:23;6.20;;;1.30;;
6638;SDS011;3355;52.882;8.430;2022-12-07T09:44:54;5.13;;;1.33;;
6638;SDS011;3355;52.882;8.430;2022-12-07T09:47:23;3.20;;;1.13;;
6638;SDS011;3355;52.882;8.430;2022-12-07T09:49:51;4.43;;;1.80;;
6638;SDS011;3355;52.882;8.430;2022-12-07T09:52:24;3.00;;;1.37;;
6638;SDS011;3355;52.882;8.430;2022-12-07T09:54:52;3.40;;;0.90;;
6638;SDS011;3355;52.882;8.430;2022-12-07T09:57:24;6.73;;;1.30;;
6638;SDS011;3355;52.882;8.430;2022-12-07T09:59:55;5.00;;;1.40;;
6638;SDS011;3355;52.882;8.430;2022-12-07T10:02:28;2.80;;;1.33;;
6638;SDS011;3355;52.882;8.430;2022-12-07T10:05:03;4.33;;;1.37;;
6638;SDS011;3355;52.882;8.430;2022-12-07T10:07:32;2.87;;;1.50;;
6638;SDS011;3355;52.882;8.430;2022-12-07T10:09:59;3.90;;;1.10;;
6638;SDS011;3355;52.882;8.430;2022-12-07T10:12:30;4.47;;;1.00;;
6638;SDS011;3355;52.882;8.430;2022-12-07T10:15:03;4.83;;;1.57;;
6638;SDS011;3355;52.882;8.430;2022-12-07T10:17:32;3.67;;;1.37;;
6638;SDS011;3355;52.882;8.430;2022-12-07T10:20:14;6.40;;;1.20;;
6638;SDS011;3355;52.882;8.430;2022-12-07T10:22:57;5.83;;;1.70;;
6638;SDS011;3355;52.882;8.430;2022-12-07T10:25:44;5.90;;;1.20;;
6638;SDS011;3355;52.882;8.430;2022-12-07T10:35:57;2.73;;;1.27;;
6638;SDS011;3355;52.882;8.430;2022-12-07T10:41:55;6.33;;;1.67;;
6638;SDS011;3355;52.882;8.430;2022-12-07T10:44:27;3.60;;;1.20;;
6638;SDS011;3355;52.882;8.430;2022-12-07T10:47:11;5.23;;;1.40;;
6638;SDS011;3355;52.882;8.430;2022-12-07T10:50:41;6.47;;;1.47;;
6638;SDS011;3355;52.882;8.430;2022-12-07T10:59:55;3.90;;;1.10;;
6638;SDS011;3355;52.882;8.430;2022-12-07T11:02:31;2.83;;;1.00;;
6638;SDS011;3355;52.882;8.430;2022-12-07T11:05:06;3.70;;;1.00;;
6638;SDS011;3355;52.882;8.430;2022-12-07T11:07:43;5.30;;;1.27;;
6638;SDS011;3355;52.882;8.430;2022-12-07T11:10:15;5.03;;;1.50;;
6638;SDS011;3355;52.882;8.430;2022-12-07T11:12:47;4.00;;;1.60;;
6638;SDS011;3355;52.882;8.430;2022-12-07T11:15:24;3.80;;;1.57;;
6638;SDS011;3355;52.882;8.430;2022-12-07T11:17:54;6.17;;;1.60;;
6638;SDS011;3355;52.882;8.430;2022-12-07T11:20:29;5.47;;;1.30;;
6638;SDS011;3355;52.882;8.430;2022-12-07T11:23:02;4.00;;;1.83;;
6638;SDS011;3355;52.882;8.430;2022-12-07T11:25:32;3.50;;;1.40;;
6638;SDS011;3355;52.882;8.430;2022-12-07T11:28:04;5.27;;;1.57;;
6638;SDS011;3355;52.882;8.430;2022-12-07T11:30:42;3.03;;;0.90;;
6638;SDS011;3355;52.882;8.430;2022-12-07T11:33:15;4.33;;;1.43;;
6638;SDS011;3355;52.882;8.430;2022-12-07T11:35:51;4.77;;;1.57;;
6638;SDS011;3355;52.882;8.430;2022-12-07T11:38:24;6.40;;;1.30;;
6638;SDS011;3355;52.882;8.430;2022-12-07T11:40:56;3.93;;;1.47;;
6638;SDS011;3355;52.882;8.430;2022-12-07T11:43:37;4.37;;;1.40;;
6638;SDS011;3355;52.882;8.430;2022-12-07T11:46:08;4.77;;;1.47;;
6638;SDS011;3355;52.882;8.430;2022-12-07T11:48:38;3.87;;;0.93;;
6638;SDS011;3355;52.882;8.430;2022-12-07T11:51:06;4.60;;;1.30;;
6638;SDS011;3355;52.882;8.430;2022-12-07T11:53:37;7.03;;;1.50;;
6638;SDS011;3355;52.882;8.430;2022-12-07T11:56:07;3.33;;;0.90;;
6638;SDS011;3355;52.882;8.430;2022-12-07T11:58:39;3.03;;;1.20;;
6638;SDS011;3355;52.882;8.430;2022-12-07T12:01:15;5.27;;;1.57;;
6638;SDS011;3355;52.882;8.430;2022-12-07T12:03:49;13.10;;;1.67;;
6638;SDS011;3355;52.882;8.430;2022-12-07T15:40:30;5.70;;;3.30;;
6638;SDS011;3355;52.882;8.430;2022-12-07T15:42:57;6.93;;;1.80;;
6638;SDS011;3355;52.882;8.430;2022-12-07T15:45:24;6.93;;;2.57;;
6638;SDS011;3355;52.882;8.430;2022-12-07T15:47:52;4.73;;;2.53;;
6638;SDS011;3355;52.882;8.430;2022-12-07T15:50:23;3.70;;;2.33;;
6638;SDS011;3355;52.882;8.430;2022-12-07T15:52:53;8.03;;;2.33;;
6638;SDS011;3355;52.882;8.430;2022-12-07T15:55:46;4.27;;;2.10;;
6638;SDS011;3355;52.882;8.430;2022-12-07T15:58:14;4.33;;;1.73;;
6638;SDS011;3355;52.882;8.430;2022-12-07T16:00:59;5.43;;;2.23;;
6638;SDS011;3355;52.882;8.430;2022-12-07T16:03:31;3.60;;;2.20;;
6638;SDS011;3355;52.882;8.430;2022-12-07T16:05:58;4.20;;;2.30;;
6638;SDS011;3355;52.882;8.430;2022-12-07T16:08:42;7.97;;;2.00;;
6638;SDS011;3355;52.882;8.430;2022-12-07T16:16:43;3.53;;;2.10;;
6638;SDS011;3355;52.882;8.430;2022-12-07T16:19:21;4.37;;;1.50;;
6638;SDS011;3355;52.882;8.430;2022-12-07T16:21:48;6.03;;;1.57;;
6638;SDS011;3355;52.882;8.430;2022-12-07T16:24:16;3.43;;;1.70;;
6638;SDS011;3355;52.882;8.430;2022-12-07T16:26:47;4.17;;;1.70;;
6638;SDS011;3355;52.882;8.430;2022-12-07T16:29:28;49.57;;;24.00;;
6638;SDS011;3355;52.882;8.430;2022-12-07T16:31:55;103.50;;;45.50;;
6638;SDS011;3355;52.882;8.430;2022-12-07T16:34:25;49.33;;;21.03;;
6638;SDS011;3355;52.882;8.430;2022-12-07T16:36:52;32.67;;;15.23;;
6638;SDS011;3355;52.882;8.430;2022-12-07T16:39:19;12.50;;;6.50;;
6638;SDS011;3355;52.882;8.430;2022-12-07T16:41:47;10.03;;;6.27;;
6638;SDS011;3355;52.882;8.430;2022-12-07T16:44:14;5.50;;;2.90;;
6638;SDS011;3355;52.882;8.430;2022-12-07T16:46:47;4.40;;;2.63;;
6638;SDS011;3355;52.882;8.430;2022-12-07T16:49:15;4.43;;;2.23;;
6638;SDS011;3355;52.882;8.430;2022-12-07T16:51:49;4.97;;;2.37;;
6638;SDS011;3355;52.882;8.430;2022-12-07T16:54:16;5.57;;;2.63;;
6638;SDS011;3355;52.882;8.430;2022-12-07T16:56:43;5.90;;;3.67;;
6638;SDS011;3355;52.882;8.430;2022-12-07T16:59:12;17.53;;;11.90;;
6638;SDS011;3355;52.882;8.430;2022-12-07T17:01:39;7.83;;;4.90;;
6638;SDS011;3355;52.882;8.430;2022-12-07T17:04:06;7.90;;;4.93;;
6638;SDS011;3355;52.882;8.430;2022-12-07T17:06:34;4.30;;;2.20;;
6638;SDS011;3355;52.882;8.430;2022-12-07T17:09:01;10.10;;;1.77;;
6638;SDS011;3355;52.882;8.430;2022-12-07T17:11:35;3.83;;;2.13;;
6638;SDS011;3355;52.882;8.430;2022-12-07T17:14:08;4.13;;;2.90;;
6638;SDS011;3355;52.882;8.430;2022-12-07T17:16:53;7.17;;;3.97;;
6638;SDS011;3355;52.882;8.430;2022-12-07T17:19:38;6.73;;;2.80;;
6638;SDS011;3355;52.882;8.430;2022-12-07T17:22:19;6.80;;;3.70;;
6638;SDS011;3355;52.882;8.430;2022-12-07T17:27:46;5.60;;;2.60;;
6638;SDS011;3355;52.882;8.430;2022-12-07T17:30:13;9.10;;;5.67;;
6638;SDS011;3355;52.882;8.430;2022-12-07T17:32:42;5.60;;;3.97;;
6638;SDS011;3355;52.882;8.430;2022-12-07T17:35:09;16.53;;;8.70;;
6638;SDS011;3355;52.882;8.430;2022-12-07T17:37:36;4.50;;;1.63;;
6638;SDS011;3355;52.882;8.430;2022-12-07T17:40:04;3.60;;;2.00;;
6638;SDS011;3355;52.882;8.430;2022-12-07T17:42:31;3.70;;;1.67;;
6638;SDS011;3355;52.882;8.430;2022-12-07T17:45:06;5.47;;;1.70;;
6638;SDS011;3355;52.882;8.430;2022-12-07T17:47:35;3.63;;;1.33;;
6638;SDS011;3355;52.882;8.430;2022-12-07T17:50:04;3.70;;;1.80;;
6638;SDS011;3355;52.882;8.430;2022-12-07T17:52:32;11.60;;;5.90;;
6638;SDS011;3355;52.882;8.430;2022-12-07T17:55:17;5.23;;;3.30;;
6638;SDS011;3355;52.882;8.430;2022-12-07T17:57:44;9.20;;;4.20;;
6638;SDS011;3355;52.882;8.430;2022-12-07T18:00:11;11.20;;;5.80;;
6638;SDS011;3355;52.882;8.430;2022-12-07T18:02:39;11.33;;;4.87;;
6638;SDS011;3355;52.882;8.430;2022-12-07T18:05:11;9.63;;;5.97;;
6638;SDS011;3355;52.882;8.430;2022-12-07T18:07:38;6.73;;;4.23;;
6638;SDS011;3355;52.882;8.430;2022-12-07T18:10:06;4.73;;;2.00;;
6638;SDS011;3355;52.882;8.430;2022-12-07T18:12:36;4.20;;;1.80;;
6638;SDS011;3355;52.882;8.430;2022-12-07T18:15:04;3.10;;;1.93;;
6638;SDS011;3355;52.882;8.430;2022-12-07T18:17:32;4.50;;;1.90;;
6638;SDS011;3355;52.882;8.430;2022-12-07T18:19:59;3.37;;;2.00;;
6638;SDS011;3355;52.882;8.430;2022-12-07T18:22:27;2.93;;;2.00;;
6638;SDS011;3355;52.882;8.430;2022-12-07T18:24:56;2.63;;;1.50;;
6638;SDS011;3355;52.882;8.430;2022-12-07T18:27:23;5.90;;;1.80;;
6638;SDS011;3355;52.882;8.430;2022-12-07T18:29:50;4.10;;;1.90;;
6638;SDS011;3355;52.882;8.430;2022-12-07T18:32:18;6.03;;;2.00;;
6638;SDS011;3355;52.882;8.430;2022-12-07T18:34:45;3.37;;;2.10;;
6638;SDS011;3355;52.882;8.430;2022-12-07T18:37:17;3.83;;;2.53;;
6638;SDS011;3355;52.882;8.430;2022-12-07T18:39:45;4.17;;;3.07;;
6638;SDS011;3355;52.882;8.430;2022-12-07T18:42:14;3.13;;;1.87;;
6638;SDS011;3355;52.882;8.430;2022-12-07T18:44:41;3.20;;;1.57;;
6638;SDS011;3355;52.882;8.430;2022-12-07T18:47:07;4.30;;;2.33;;
6638;SDS011;3355;52.882;8.430;2022-12-07T18:49:34;2.73;;;1.50;;
6638;SDS011;3355;52.882;8.430;2022-12-07T18:52:01;5.20;;;1.10;;
6638;SDS011;3355;52.882;8.430;2022-12-07T18:54:28;3.70;;;1.33;;
6638;SDS011;3355;52.882;8.430;2022-12-07T18:57:06;1.97;;;0.80;;
6638;SDS011;3355;52.882;8.430;2022-12-07T18:59:33;3.07;;;1.90;;
6638;SDS011;3355;52.882;8.430;2022-12-07T19:02:12;3.30;;;1.73;;
6638;SDS011;3355;52.882;8.430;2022-12-07T19:04:38;2.93;;;1.80;;
6638;SDS011;3355;52.882;8.430;2022-12-07T19:07:05;4.20;;;1.70;;
6638;SDS011;3355;52.882;8.430;2022-12-07T19:09:32;2.93;;;1.70;;
6638;SDS011;3355;52.882;8.430;2022-12-07T19:11:58;2.70;;;1.30;;
6638;SDS011;3355;52.882;8.430;2022-12-07T19:14:29;6.93;;;1.50;;
6638;SDS011;3355;52.882;8.430;2022-12-07T19:16:59;4.20;;;2.20;;
6638;SDS011;3355;52.882;8.430;2022-12-07T19:19:28;4.40;;;2.00;;
6638;SDS011;3355;52.882;8.430;2022-12-07T19:21:58;5.23;;;1.50;;
6638;SDS011;3355;52.882;8.430;2022-12-07T19:24:25;4.53;;;2.10;;
6638;SDS011;3355;52.882;8.430;2022-12-07T19:26:52;3.43;;;1.30;;
6638;SDS011;3355;52.882;8.430;2022-12-07T19:29:19;3.20;;;2.30;;
6638;SDS011;3355;52.882;8.430;2022-12-07T19:31:47;4.30;;;1.77;;
6638;SDS011;3355;52.882;8.430;2022-12-07T19:34:15;4.43;;;1.60;;
6638;SDS011;3355;52.882;8.430;2022-12-07T19:36:42;5.37;;;1.53;;
6638;SDS011;3355;52.882;8.430;2022-12-07T19:39:09;7.03;;;2.40;;
6638;SDS011;3355;52.882;8.430;2022-12-07T19:41:36;3.37;;;2.10;;
6638;SDS011;3355;52.882;8.430;2022-12-07T19:44:04;5.50;;;1.90;;
6638;SDS011;3355;52.882;8.430;2022-12-07T19:46:32;3.37;;;2.03;;
6638;SDS011;3355;52.882;8.430;2022-12-07T19:49:00;3.67;;;1.80;;